Time;durP1;ratioP1;P1;durP2;ratioP2;P2;SDS_P1;SDS_P2;PMS_P1;PMS_P2;Temp;Humidity;BMP_temperature;BMP_pressure;BME280_temperature;BME280_humidity;BME280_pressure;Samples;Min_cycle;Max_cycle;Signal;HPM_P1;HPM_P2
2023/09/21 00:01:06;;;;;;;12.10;10.90;;;;;;;18.09;84.08;99533.56;109069;1259;60420;-52
2023/09/21 00:03:36;;;;;;;14.60;11.10;;;;;;;18.08;83.63;99533.91;109068;1258;59078;-52
2023/09/21 00:06:04;;;;;;;15.90;11.40;;;;;;;18.12;82.97;99538.45;109007;1257;74480;-52
2023/09/21 00:08:31;;;;;;;16.10;11.70;;;;;;;18.07;83.38;99539.27;109083;1257;68731;-52
2023/09/21 00:10:58;;;;;;;14.10;11.50;;;;;;;17.89;84.36;99543.81;108934;1257;71511;-52
2023/09/21 00:13:28;;;;;;;13.40;12.00;;;;;;;17.81;84.37;99548.21;109012;1257;62112;-52
2023/09/21 00:16:08;;;;;;;13.20;11.70;;;;;;;17.85;84.03;99550.20;109456;1251;59041;-52
2023/09/21 00:18:35;;;;;;;14.60;13.10;;;;;;;17.87;84.69;99551.35;109605;1252;74904;-52
2023/09/21 00:21:06;;;;;;;13.90;12.30;;;;;;;17.91;85.32;99555.00;109634;1252;67330;-53
2023/09/21 00:23:32;;;;;;;15.40;13.90;;;;;;;18.00;85.47;99555.71;109455;1251;71313;-52
2023/09/21 00:26:00;;;;;;;16.00;13.80;;;;;;;18.06;85.47;99558.24;109686;1251;59485;-52
2023/09/21 00:28:30;;;;;;;15.60;14.00;;;;;;;18.07;85.17;99557.61;109720;1250;59976;-52
2023/09/21 00:30:57;;;;;;;16.60;13.90;;;;;;;18.08;84.83;99556.30;109699;1251;74818;-52
2023/09/21 00:33:25;;;;;;;16.60;14.90;;;;;;;17.98;85.74;99556.49;109723;1251;67284;-52
2023/09/21 00:35:52;;;;;;;17.50;15.40;;;;;;;17.90;86.85;99555.46;109741;1251;72425;-52
2023/09/21 00:38:19;;;;;;;20.20;15.50;;;;;;;18.13;85.09;99562.05;109565;1251;61872;-52
2023/09/21 00:40:47;;;;;;;22.50;19.90;;;;;;;18.16;85.00;99565.52;109739;1250;60339;-52
2023/09/21 00:43:21;;;;;;;19.50;14.90;;;;;;;18.20;84.55;99561.64;109681;1251;73054;-52
2023/09/21 00:45:53;;;;;;;21.80;16.20;;;;;;;18.37;82.81;99564.43;109746;1251;68637;-52
2023/09/21 00:48:25;;;;;;;18.00;15.30;;;;;;;18.33;82.68;99563.65;109699;1251;71677;-52
2023/09/21 00:50:56;;;;;;;15.30;12.90;;;;;;;18.14;83.82;99561.45;109344;1250;60413;-52
2023/09/21 00:53:23;;;;;;;15.60;13.90;;;;;;;18.13;83.30;99560.48;109744;1250;60079;-53
2023/09/21 00:55:52;;;;;;;19.10;14.80;;;;;;;18.12;83.43;99556.77;109718;1251;74444;-53
2023/09/21 00:58:19;;;;;;;20.80;14.90;;;;;;;17.99;83.71;99558.98;109401;1251;68772;-52
2023/09/21 01:00:46;;;;;;;20.80;17.60;;;;;;;17.84;84.52;99555.04;109706;1251;72822;-52
2023/09/21 01:03:13;;;;;;;18.30;15.60;;;;;;;17.78;85.00;99552.63;109708;1251;61634;-52
2023/09/21 01:05:44;;;;;;;20.20;15.20;;;;;;;17.85;84.68;99553.66;109730;1251;59072;-52
2023/09/21 01:08:11;;;;;;;17.70;15.00;;;;;;;17.80;84.71;99551.90;109714;1251;73515;-52
2023/09/21 01:10:42;;;;;;;15.90;13.90;;;;;;;17.78;84.63;99556.43;109715;1251;68126;-52
2023/09/21 01:13:10;;;;;;;19.70;16.10;;;;;;;17.90;83.64;99555.41;109549;1253;70459;-52
2023/09/21 01:15:37;;;;;;;19.00;14.20;;;;;;;17.89;83.35;99556.41;109545;1253;60433;-52
2023/09/21 01:18:04;;;;;;;17.40;13.80;;;;;;;17.85;83.24;99556.44;109508;1252;60121;-52
2023/09/21 01:20:32;;;;;;;15.60;14.00;;;;;;;17.91;82.74;99558.11;109611;1251;74656;-52
2023/09/21 01:23:18;;;;;;;16.90;14.80;;;;;;;17.82;82.95;99558.27;109588;1252;67536;-52
2023/09/21 01:25:46;;;;;;;18.10;15.70;;;;;;;17.84;82.77;99560.96;109563;1253;72477;-52
2023/09/21 01:28:16;;;;;;;20.20;16.80;;;;;;;17.88;82.39;99561.96;109580;1252;61785;-53
2023/09/21 01:30:43;;;;;;;21.50;15.20;;;;;;;17.77;82.96;99560.69;109549;1253;60111;-52
2023/09/21 01:33:11;;;;;;;16.70;14.60;;;;;;;17.72;83.25;99561.55;109638;1253;72275;-53
2023/09/21 01:35:38;;;;;;;16.20;14.60;;;;;;;17.76;82.77;99558.48;109636;1253;67491;-52
2023/09/21 01:38:08;;;;;;;16.00;14.20;;;;;;;17.75;82.81;99557.95;109635;1253;72558;-52
2023/09/21 01:40:36;;;;;;;15.70;13.90;;;;;;;17.66;83.16;99559.20;109548;1255;60803;-52
2023/09/21 01:43:05;;;;;;;16.10;14.00;;;;;;;17.53;83.91;99559.95;109208;1253;60143;-52
2023/09/21 01:45:33;;;;;;;16.90;15.00;;;;;;;17.45;84.33;99556.40;109642;1253;73541;-52
2023/09/21 01:48:00;;;;;;;20.20;16.80;;;;;;;17.52;84.06;99555.94;109624;1253;67241;-52
2023/09/21 01:50:28;;;;;;;21.20;16.50;;;;;;;17.46;84.63;99556.76;109602;1253;72797;-52
2023/09/21 01:52:56;;;;;;;18.10;15.80;;;;;;;17.38;85.37;99559.88;109581;1252;60215;-52
2023/09/21 01:55:22;;;;;;;18.50;15.20;;;;;;;17.35;85.19;99560.59;109580;1255;59016;-52
2023/09/21 01:57:49;;;;;;;18.70;15.20;;;;;;;17.32;84.89;99561.39;109620;1252;74443;-52
2023/09/21 02:00:26;;;;;;;18.30;16.30;;;;;;;17.31;85.49;99559.95;109110;1254;67669;-52
2023/09/21 02:02:53;;;;;;;21.10;16.60;;;;;;;17.33;85.72;99559.76;109369;1255;71874;-53
2023/09/21 02:05:21;;;;;;;21.50;15.70;;;;;;;17.34;85.61;99560.16;109365;1257;60506;-52
2023/09/21 02:07:48;;;;;;;16.70;14.50;;;;;;;17.32;86.10;99562.16;109347;1254;59193;-52
2023/09/21 02:10:15;;;;;;;19.70;14.80;;;;;;;17.40;85.69;99563.98;109358;1254;74506;-52
2023/09/21 02:12:56;;;;;;;16.70;14.80;;;;;;;17.37;85.58;99564.73;109130;1257;68547;-52
2023/09/21 02:15:23;;;;;;;17.90;14.70;;;;;;;17.36;85.12;99559.05;109063;1256;71704;-52
2023/09/21 02:17:52;;;;;;;16.50;14.80;;;;;;;17.35;84.90;99559.39;109060;1257;61649;-53
2023/09/21 02:20:20;;;;;;;16.00;14.40;;;;;;;17.32;84.70;99556.41;109378;1254;60022;-52
2023/09/21 02:22:48;;;;;;;19.30;15.50;;;;;;;17.25;84.56;99552.41;109399;1254;73165;-52
2023/09/21 02:25:15;;;;;;;16.00;13.30;;;;;;;17.25;84.29;99551.17;109410;1253;68558;-52
2023/09/21 02:27:45;;;;;;;15.00;13.00;;;;;;;17.16;84.07;99547.25;109269;1253;70216;-52
2023/09/21 02:30:13;;;;;;;17.10;13.60;;;;;;;17.11;83.88;99550.91;109471;1254;61783;-52
2023/09/21 02:32:41;;;;;;;14.90;12.90;;;;;;;16.79;85.41;99549.40;109489;1253;60305;-53
2023/09/21 02:35:13;;;;;;;13.40;12.00;;;;;;;16.75;85.05;99548.15;109348;1254;73660;-52
2023/09/21 02:37:44;;;;;;;14.90;11.70;;;;;;;16.76;84.29;99549.08;109559;1252;68781;-52
2023/09/21 02:40:14;;;;;;;17.00;12.70;;;;;;;16.74;83.99;99549.91;109410;1252;71394;-52
2023/09/21 02:42:42;;;;;;;16.20;12.60;;;;;;;16.77;84.10;99552.20;109592;1253;61656;-52
2023/09/21 02:45:10;;;;;;;15.20;12.30;;;;;;;16.81;83.64;99553.23;109301;1253;60179;-52
2023/09/21 02:47:37;;;;;;;13.80;11.10;;;;;;;16.73;84.13;99556.75;109571;1253;73530;-51
2023/09/21 02:50:27;;;;;;;11.60;10.30;;;;;;;16.74;83.79;99553.31;109575;1253;68658;-52
2023/09/21 02:52:55;;;;;;;15.80;13.20;;;;;;;16.68;83.77;99554.17;109365;1253;71421;-52
2023/09/21 02:55:26;;;;;;;14.90;12.80;;;;;;;16.63;84.18;99556.84;109583;1253;60427;-51
2023/09/21 02:57:54;;;;;;;15.30;13.10;;;;;;;16.59;84.22;99555.54;109570;1256;60086;-52
2023/09/21 03:02:56;;;;;;;17.70;14.90;;;;;;;16.53;85.40;99556.39;109430;1253;67300;-52
2023/09/21 03:05:24;;;;;;;20.30;15.80;;;;;;;16.69;84.97;99555.40;109296;1253;71317;-52
2023/09/21 03:07:51;;;;;;;23.30;19.90;;;;;;;16.72;84.81;99555.52;109489;1252;60429;-52
2023/09/21 03:10:21;;;;;;;26.90;19.30;;;;;;;16.73;84.90;99553.83;109606;1251;60110;-52
2023/09/21 03:12:51;;;;;;;17.60;14.90;;;;;;;16.66;85.28;99550.61;109534;1252;74535;-52
2023/09/21 03:15:22;;;;;;;15.40;13.90;;;;;;;16.58;85.48;99552.95;109603;1254;68560;-52
2023/09/21 03:17:54;;;;;;;14.90;13.10;;;;;;;16.59;84.66;99555.50;109559;1251;71260;-52
2023/09/21 03:22:56;;;;;;;19.50;14.70;;;;;;;16.50;84.21;99563.41;109535;1251;60113;-52
2023/09/21 03:25:28;;;;;;;15.20;13.50;;;;;;;16.53;83.98;99566.86;109595;1256;73163;-52
2023/09/21 03:27:55;;;;;;;16.80;13.90;;;;;;;16.39;84.76;99564.07;109714;1251;68509;-52
2023/09/21 03:30:24;;;;;;;18.20;14.30;;;;;;;16.37;84.89;99563.01;109687;1251;72529;-52
2023/09/21 03:32:52;;;;;;;17.10;13.80;;;;;;;16.36;85.13;99569.09;109611;1254;60681;-52
2023/09/21 03:35:20;;;;;;;19.40;13.80;;;;;;;16.30;85.57;99572.46;109700;1251;59063;-52
2023/09/21 03:37:48;;;;;;;18.20;14.10;;;;;;;16.30;85.77;99574.63;109750;1251;74385;-52
2023/09/21 03:40:15;;;;;;;17.50;12.90;;;;;;;16.38;85.53;99571.45;109432;1251;67562;-52
2023/09/21 03:42:41;;;;;;;17.60;12.40;;;;;;;16.38;85.39;99576.96;109392;1252;71241;-52
2023/09/21 03:45:09;;;;;;;20.60;14.80;;;;;;;16.35;85.59;99577.23;109568;1251;61659;-57
2023/09/21 03:47:35;;;;;;;19.50;15.60;;;;;;;16.31;85.92;99578.41;109585;1255;59014;-52
2023/09/21 03:50:03;;;;;;;14.80;12.00;;;;;;;16.35;86.13;99571.48;109607;1251;74482;-52
2023/09/21 03:52:33;;;;;;;18.40;12.80;;;;;;;16.41;86.29;99571.90;109649;1251;67783;-52
2023/09/21 03:55:01;;;;;;;15.30;12.70;;;;;;;16.43;86.63;99568.77;109587;1253;72598;-51
2023/09/21 03:57:29;;;;;;;;;;;;;;;16.64;85.98;99567.41;109579;1253;60602;-50
2023/09/21 03:59:57;;;;;;;17.30;12.20;;;;;;;16.66;86.02;99570.30;109192;1258;59847;-52
2023/09/21 04:02:25;;;;;;;;;;;;;;;16.71;85.99;99567.52;109546;1254;73314;-52
2023/09/21 04:04:51;;;;;;;20.20;13.40;;;;;;;16.70;85.70;99569.59;109541;1254;67472;-51
2023/09/21 04:07:19;;;;;;;19.30;12.00;;;;;;;16.80;85.29;99562.04;109136;1254;71274;-52
2023/09/21 04:09:46;;;;;;;16.70;12.50;;;;;;;16.84;84.80;99563.66;109504;1253;61861;-51
2023/09/21 04:12:13;;;;;;;13.20;11.10;;;;;;;16.85;85.13;99562.77;109531;1254;60158;-52
2023/09/21 04:14:45;;;;;;;12.70;10.50;;;;;;;16.88;84.44;99563.88;109297;1254;74887;-52
2023/09/21 04:17:12;;;;;;;21.20;11.20;;;;;;;16.79;84.98;99565.56;109167;1254;68697;-52
2023/09/21 04:19:39;;;;;;;17.60;11.90;;;;;;;16.81;85.70;99568.85;109386;1254;72523;-52
2023/09/21 04:22:06;;;;;;;13.50;11.40;;;;;;;16.92;85.42;99569.33;109369;1255;61714;-52
2023/09/21 04:24:33;;;;;;;13.20;11.60;;;;;;;17.02;84.62;99569.45;109550;1254;59133;-52
2023/09/21 04:27:03;;;;;;;13.40;10.50;;;;;;;17.05;84.86;99567.66;109507;1253;73599;-52
2023/09/21 04:29:30;;;;;;;13.70;11.50;;;;;;;17.23;85.08;99565.85;109583;1251;110224;-52
2023/09/21 04:31:59;;;;;;;27.00;19.80;;;;;;;17.44;85.64;99567.39;109642;1251;72437;-52
2023/09/21 04:34:26;;;;;;;;;;;;;;;17.85;84.54;99573.35;109741;1251;61844;-52
2023/09/21 04:36:53;;;;;;;12.70;9.10;;;;;;;18.22;82.24;99569.91;109752;1251;59864;-52
2023/09/21 04:39:19;;;;;;;14.60;9.50;;;;;;;18.63;80.64;99571.20;109617;1251;74500;-52
2023/09/21 04:41:46;;;;;;;9.00;8.00;;;;;;;18.94;80.42;99568.64;109624;1251;68555;-52
2023/09/21 04:44:14;;;;;;;13.00;9.60;;;;;;;19.47;79.52;99569.48;109627;1251;72448;-52
2023/09/21 04:46:42;;;;;;;15.20;8.90;;;;;;;20.13;76.43;99575.18;109748;1251;60394;-53
2023/09/21 04:49:09;;;;;;;15.30;9.60;;;;;;;20.78;73.45;99576.35;109616;1251;59114;-52
2023/09/21 04:51:38;;;;;;;13.70;10.90;;;;;;;21.20;70.35;99572.27;109612;1251;74550;-52
2023/09/21 04:54:06;;;;;;;17.40;12.30;;;;;;;21.40;63.70;99574.23;109738;1251;68445;-51
2023/09/21 04:56:33;;;;;;;22.00;17.60;;;;;;;21.22;61.49;99572.64;109587;1251;72140;-51
2023/09/21 04:59:00;;;;;;;23.30;19.50;;;;;;;20.95;61.74;99577.51;109401;1251;61760;-52
2023/09/21 05:01:27;;;;;;;25.40;16.40;;;;;;;20.73;62.85;99574.81;109607;1251;59462;-53
2023/09/21 05:03:56;;;;;;;27.70;16.50;;;;;;;20.64;62.61;99572.81;109635;1251;74357;-52
2023/09/21 05:06:23;;;;;;;16.70;14.30;;;;;;;20.76;62.30;99571.41;109346;1251;68548;-52
2023/09/21 05:08:51;;;;;;;25.70;14.80;;;;;;;20.95;61.85;99572.02;109624;1251;72467;-52
2023/09/21 05:11:18;;;;;;;19.60;13.90;;;;;;;21.32;61.71;99575.74;109241;1251;60069;-52
2023/09/21 05:13:44;;;;;;;20.20;13.80;;;;;;;21.80;62.94;99575.65;109501;1253;59985;-51
2023/09/21 05:16:11;;;;;;;20.20;15.20;;;;;;;21.83;62.63;99580.77;109664;1251;72744;-52
2023/09/21 05:18:38;;;;;;;23.40;15.10;;;;;;;22.19;62.55;99586.20;109573;1251;68764;-51
2023/09/21 05:21:05;;;;;;;21.60;15.80;;;;;;;22.38;61.91;99591.95;109535;1252;71204;-51
2023/09/21 05:23:32;;;;;;;21.50;12.70;;;;;;;22.60;61.67;99593.17;109645;1251;60540;-52
2023/09/21 05:25:59;;;;;;;17.30;12.40;;;;;;;22.55;58.97;99597.15;109490;1250;59105;-51
2023/09/21 05:28:26;;;;;;;26.50;15.00;;;;;;;22.26;58.18;99602.35;109740;1251;73451;-51
2023/09/21 05:30:54;;;;;;;19.80;13.00;;;;;;;21.91;58.41;99603.61;109719;1250;68040;-52
2023/09/21 05:33:21;;;;;;;;;;;;;;;21.69;58.78;99602.42;109742;1250;72473;-51
2023/09/21 05:35:53;;;;;;;15.80;10.00;;;;;;;21.66;59.72;99604.05;109629;1251;61723;-51
2023/09/21 05:38:20;;;;;;;14.10;9.30;;;;;;;21.89;59.22;99607.14;109693;1250;59028;-52
2023/09/21 05:40:47;;;;;;;11.90;9.70;;;;;;;22.18;58.07;99611.07;109786;1250;74482;-50
2023/09/21 05:43:30;;;;;;;14.90;10.10;;;;;;;22.26;57.62;99611.75;109493;1251;68716;-51
2023/09/21 05:45:59;;;;;;;13.60;10.50;;;;;;;22.41;56.69;99617.06;109705;1250;72402;-51
2023/09/21 05:48:26;;;;;;;14.90;11.30;;;;;;;22.22;57.15;99621.71;109709;1251;61738;-51
2023/09/21 05:50:53;;;;;;;16.80;12.00;;;;;;;22.20;57.65;99624.50;109697;1251;59438;-52
2023/09/21 05:53:22;;;;;;;17.60;14.90;;;;;;;22.58;55.27;99628.60;109761;1251;74332;-52
2023/09/21 05:55:48;;;;;;;18.70;15.80;;;;;;;22.67;53.63;99630.34;109745;1251;68685;-51
2023/09/21 05:58:15;;;;;;;17.80;15.30;;;;;;;23.05;53.22;99631.95;109726;1250;72484;-51
2023/09/21 06:00:42;;;;;;;21.80;16.60;;;;;;;23.49;52.53;99629.11;109736;1251;61002;-51
2023/09/21 06:03:09;;;;;;;23.10;15.60;;;;;;;24.27;51.41;99629.60;109755;1251;58909;-53
2023/09/21 06:05:37;;;;;;;23.90;16.50;;;;;;;25.00;48.65;99632.30;109473;1251;74502;-52
2023/09/21 06:08:04;;;;;;;21.70;16.70;;;;;;;25.44;47.37;99633.23;109743;1250;68427;-53
2023/09/21 06:10:30;;;;;;;23.90;15.50;;;;;;;25.82;46.94;99629.35;109362;1251;71511;-52
2023/09/21 06:12:57;;;;;;;19.50;15.20;;;;;;;26.20;46.51;99632.49;109612;1250;60300;-52
2023/09/21 06:15:23;;;;;;;18.70;15.20;;;;;;;26.56;45.73;99632.47;109543;1253;58991;-52
2023/09/21 06:17:50;;;;;;;20.50;14.80;;;;;;;26.63;45.59;99636.42;109641;1251;74567;-52
2023/09/21 06:20:18;;;;;;;20.60;14.90;;;;;;;26.57;45.94;99640.21;109552;1252;67179;-52
2023/09/21 06:22:46;;;;;;;17.20;13.50;;;;;;;26.67;45.90;99644.68;109510;1251;71283;-52
2023/09/21 06:25:12;;;;;;;20.50;16.00;;;;;;;26.69;45.55;99643.30;109536;1251;60083;-50
2023/09/21 06:27:41;;;;;;;16.70;13.90;;;;;;;26.41;46.14;99645.01;109734;1251;59926;-53
2023/09/21 06:30:10;;;;;;;19.60;13.00;;;;;;;26.59;46.53;99644.95;109508;1250;73259;-52
2023/09/21 06:32:37;;;;;;;16.20;12.40;;;;;;;26.81;46.28;99648.20;109744;1251;67363;-52
2023/09/21 06:35:05;;;;;;;15.30;13.60;;;;;;;26.62;46.75;99644.17;109733;1250;72401;-52
2023/09/21 06:37:33;;;;;;;15.30;13.50;;;;;;;26.52;47.35;99644.50;109707;1251;60223;-53
2023/09/21 06:40:00;;;;;;;19.60;15.10;;;;;;;26.54;47.16;99643.29;109755;1250;60092;-52
2023/09/21 06:42:27;;;;;;;19.10;13.90;;;;;;;26.70;47.12;99639.71;109730;1250;73876;-53
2023/09/21 06:44:54;;;;;;;21.70;17.30;;;;;;;26.71;46.43;99646.73;109759;1250;67700;-53
2023/09/21 06:47:22;;;;;;;26.20;20.70;;;;;;;26.87;46.20;99646.98;109717;1250;71234;-52
2023/09/21 06:49:53;;;;;;;31.40;23.30;;;;;;;26.92;45.64;99648.44;109359;1251;59228;-53
2023/09/21 06:52:21;;;;;;;28.10;22.50;;;;;;;27.19;45.56;99646.23;109758;1251;59231;-53
2023/09/21 06:54:49;;;;;;;24.80;21.70;;;;;;;27.77;44.25;99652.80;109759;1250;75826;-53
2023/09/21 06:57:22;;;;;;;24.20;20.10;;;;;;;27.88;44.07;99656.38;109751;1251;68636;-53
2023/09/21 06:59:51;;;;;;;14.50;12.30;;;;;;;27.55;43.43;99652.77;109410;1250;73867;-53
2023/09/21 07:02:18;;;;;;;18.10;12.40;;;;;;;26.91;44.81;99654.15;109751;1250;59406;-52
2023/09/21 07:04:45;;;;;;;12.30;10.60;;;;;;;26.80;45.58;99656.11;109749;1250;60529;-52
2023/09/21 07:07:11;;;;;;;12.50;11.20;;;;;;;26.69;45.88;99651.33;109767;1250;74800;-52
2023/09/21 07:09:38;;;;;;;15.30;12.10;;;;;;;26.65;46.53;99650.98;109777;1250;68751;-53
2023/09/21 07:12:06;;;;;;;13.50;10.70;;;;;;;26.80;47.17;99651.16;109682;1252;72440;-52
2023/09/21 07:14:35;;;;;;;;;;;;;;;27.38;46.19;99651.81;109520;1252;60187;-52
2023/09/21 07:17:05;;;;;;;13.80;10.60;;;;;;;27.79;45.23;99649.75;109652;1251;60330;-53
2023/09/21 07:19:31;;;;;;;13.40;10.80;;;;;;;27.92;44.96;99651.55;109544;1251;74648;-53
2023/09/21 07:21:58;;;;;;;11.30;8.40;;;;;;;28.10;44.09;99652.09;109544;1251;68993;-53
2023/09/21 07:24:25;;;;;;;13.20;8.60;;;;;;;28.42;43.41;99653.07;109711;1250;72482;-52
2023/09/21 07:26:53;;;;;;;13.50;9.00;;;;;;;28.37;42.89;99652.44;109721;1250;59201;-52
2023/09/21 07:29:20;;;;;;;10.00;8.80;;;;;;;28.53;42.80;99653.80;109471;1250;60680;-53
2023/09/21 07:31:47;;;;;;;10.10;8.30;;;;;;;28.64;42.06;99652.78;109741;1250;74536;-52
2023/09/21 07:34:14;;;;;;;10.70;7.70;;;;;;;28.50;42.01;99652.56;109455;1251;67738;-53
2023/09/21 07:36:41;;;;;;;9.00;8.00;;;;;;;28.28;41.88;99653.23;109722;1250;72477;-52
2023/09/21 07:39:09;;;;;;;8.40;7.10;;;;;;;28.52;41.40;99655.67;109745;1250;60116;-53
2023/09/21 07:41:36;;;;;;;8.70;7.00;;;;;;;28.82;40.67;99657.27;109753;1250;60136;-53
2023/09/21 07:44:05;;;;;;;8.30;7.20;;;;;;;29.22;39.99;99660.41;109775;1250;74544;-52
2023/09/21 07:46:33;;;;;;;9.20;6.30;;;;;;;29.56;39.25;99660.64;109728;1250;67309;-53
2023/09/21 07:48:59;;;;;;;8.80;6.40;;;;;;;29.93;37.95;99663.07;109712;1250;72329;-53
2023/09/21 07:51:26;;;;;;;8.70;5.00;;;;;;;29.84;37.24;99660.85;109740;1250;58934;-53
2023/09/21 07:53:53;;;;;;;5.20;4.30;;;;;;;29.91;36.47;99665.73;109784;1250;58952;-51
2023/09/21 07:56:19;;;;;;;7.10;5.10;;;;;;;29.93;36.42;99666.52;109737;1250;73368;-51
2023/09/21 07:58:46;;;;;;;8.30;5.20;;;;;;;29.88;36.77;99665.79;109743;1250;68976;-51
2023/09/21 08:01:13;;;;;;;5.80;4.70;;;;;;;30.43;36.39;99667.81;109742;1250;71901;-51
2023/09/21 08:03:40;;;;;;;7.00;4.90;;;;;;;30.77;34.40;99670.95;109725;1250;59405;-52
2023/09/21 08:06:07;;;;;;;6.50;4.50;;;;;;;30.31;34.84;99669.39;109729;1250;60218;-51
2023/09/21 08:08:34;;;;;;;7.00;4.20;;;;;;;30.16;34.75;99669.75;109505;1254;75077;-51
2023/09/21 08:11:00;;;;;;;7.40;4.80;;;;;;;29.90;34.29;99672.84;109376;1251;68611;-52
2023/09/21 08:13:27;;;;;;;5.10;4.10;;;;;;;29.95;34.36;99673.59;109526;1250;72604;-52
2023/09/21 08:15:54;;;;;;;6.20;5.00;;;;;;;30.18;33.57;99676.02;109516;1252;59296;-51
2023/09/21 08:18:23;;;;;;;6.50;4.00;;;;;;;30.27;33.11;99678.46;109644;1252;59070;-51
2023/09/21 08:20:50;;;;;;;6.80;4.00;;;;;;;30.37;33.25;99675.23;109435;1253;74652;-51
2023/09/21 08:23:18;;;;;;;7.60;4.20;;;;;;;30.22;32.29;99674.52;109465;1250;68580;-51
2023/09/21 08:25:45;;;;;;;5.80;3.60;;;;;;;30.23;32.30;99675.11;109694;1250;72586;-51
2023/09/21 08:28:12;;;;;;;;;;;;;;;30.51;32.00;99670.27;109556;1251;61400;-51
2023/09/21 08:30:39;;;;;;;9.60;4.20;;;;;;;30.82;31.90;99672.59;109777;1250;60525;-52
2023/09/21 08:33:07;;;;;;;7.40;4.70;;;;;;;31.03;31.31;99668.02;109727;1250;74469;-51
2023/09/21 08:35:34;;;;;;;5.90;3.90;;;;;;;31.23;30.86;99667.39;109722;1250;69952;-52
2023/09/21 08:38:02;;;;;;;4.80;3.90;;;;;;;30.86;30.65;99665.15;109546;1251;72464;-52
2023/09/21 08:40:29;;;;;;;7.10;4.20;;;;;;;30.46;31.25;99665.31;109729;1250;60242;-52
2023/09/21 08:42:57;;;;;;;9.10;4.70;;;;;;;30.71;31.46;99663.49;109619;1251;60639;-52
2023/09/21 08:45:23;;;;;;;8.20;5.30;;;;;;;30.91;32.19;99659.27;109740;1250;74517;-52
2023/09/21 08:47:51;;;;;;;8.70;4.40;;;;;;;31.39;31.70;99657.70;109707;1250;68462;-51
2023/09/21 08:50:18;;;;;;;7.00;4.10;;;;;;;31.77;31.15;99658.35;109684;1250;63963;-52
2023/09/21 08:52:45;;;;;;;5.20;4.40;;;;;;;32.05;31.21;99658.94;109538;1251;59256;-52
2023/09/21 08:55:12;;;;;;;6.00;3.80;;;;;;;32.16;30.55;99653.55;109619;1251;59039;-51
2023/09/21 08:57:39;;;;;;;6.00;4.00;;;;;;;31.82;30.26;99653.52;109755;1250;64506;-51
2023/09/21 09:00:08;;;;;;;5.20;4.00;;;;;;;31.45;30.71;99652.11;109739;1250;68736;-52
2023/09/21 09:02:35;;;;;;;7.10;4.30;;;;;;;31.56;31.00;99648.81;109768;1250;72603;-51
2023/09/21 09:05:07;;;;;;;6.10;3.80;;;;;;;30.92;31.75;99647.70;109500;1251;60153;-52
2023/09/21 09:07:40;;;;;;;10.60;4.70;;;;;;;30.74;32.47;99649.41;109718;1250;60772;-52
2023/09/21 09:10:09;;;;;;;10.80;4.00;;;;;;;30.71;33.11;99646.15;109751;1250;74780;-51
2023/09/21 09:12:37;;;;;;;5.30;3.80;;;;;;;30.88;32.86;99646.83;109727;1250;68866;-51
2023/09/21 09:15:05;;;;;;;4.00;3.40;;;;;;;31.03;32.87;99643.23;109518;1252;73181;-51
2023/09/21 09:17:32;;;;;;;7.40;3.80;;;;;;;31.56;32.98;99645.16;109656;1251;58985;-52
2023/09/21 09:20:02;;;;;;;5.10;4.20;;;;;;;31.41;33.19;99645.65;109470;1251;59283;-51
2023/09/21 09:22:33;;;;;;;4.90;3.90;;;;;;;31.75;32.96;99650.26;109465;1250;64742;-53
2023/09/21 09:25:11;;;;;;;4.70;3.70;;;;;;;32.14;32.40;99653.54;109766;1250;58986;-55
2023/09/21 09:27:38;;;;;;;6.00;3.50;;;;;;;32.35;32.35;99652.88;109653;1250;71380;-52
2023/09/21 09:30:08;;;;;;;4.50;3.30;;;;;;;31.68;32.92;99645.95;109721;1250;58982;-51
2023/09/21 09:32:40;;;;;;;4.30;3.60;;;;;;;31.48;33.18;99646.40;109698;1250;58998;-52
2023/09/21 09:35:12;;;;;;;4.40;3.80;;;;;;;31.69;33.47;99647.47;109721;1250;67223;-52
2023/09/21 09:37:40;;;;;;;4.20;3.30;;;;;;;32.07;33.07;99644.17;109763;1250;58985;-52
2023/09/21 09:40:09;;;;;;;6.20;3.70;;;;;;;32.30;32.36;99644.88;109746;1251;64007;-53
2023/09/21 09:42:43;;;;;;;4.40;3.30;;;;;;;32.66;31.22;99649.52;109701;1250;58894;-52
2023/09/21 09:45:20;;;;;;;4.70;3.30;;;;;;;32.77;31.11;99646.06;109665;1251;58946;-52
2023/09/21 09:47:57;;;;;;;6.90;2.90;;;;;;;32.79;30.87;99645.34;109631;1251;66113;-52
2023/09/21 09:50:24;;;;;;;4.50;3.30;;;;;;;32.97;30.49;99646.41;109677;1250;60288;-53
2023/09/21 09:53:02;;;;;;;6.10;3.50;;;;;;;33.23;30.31;99650.04;109733;1250;63769;-53
2023/09/21 09:55:33;;;;;;;5.20;3.20;;;;;;;33.52;30.11;99644.55;109741;1250;58940;-53
2023/09/21 09:58:00;;;;;;;3.80;3.30;;;;;;;33.58;29.78;99637.38;109733;1250;59035;-52
2023/09/21 10:00:27;;;;;;;;;;;;;;;33.45;30.13;99639.83;109462;1251;65968;-52
2023/09/21 10:02:57;;;;;;;5.70;3.30;;;;;;;32.71;30.61;99635.95;109729;1250;59860;-52
2023/09/21 10:05:26;;;;;;;10.30;3.80;;;;;;;31.83;31.89;99631.48;109730;1250;63768;-52
2023/09/21 10:07:55;;;;;;;5.80;3.70;;;;;;;31.54;32.85;99631.45;109722;1250;58955;-52
2023/09/21 10:10:22;;;;;;;8.30;3.80;;;;;;;31.35;32.92;99629.00;109511;1251;59123;-52
2023/09/21 10:12:52;;;;;;;6.60;3.90;;;;;;;31.65;32.99;99629.08;109688;1250;74669;-52
2023/09/21 10:15:22;;;;;;;4.40;3.50;;;;;;;32.27;31.60;99634.40;109591;1252;58988;-52
2023/09/21 10:17:50;;;;;;;5.60;3.60;;;;;;;32.17;31.19;99627.13;109653;1250;62501;-53
2023/09/21 10:20:24;;;;;;;3.70;3.30;;;;;;;32.09;31.58;99626.34;109565;1252;58989;-52
2023/09/21 10:22:55;;;;;;;11.80;4.00;;;;;;;32.42;31.40;99630.75;109437;1250;59165;-55
2023/09/21 10:25:55;;;;;;;9.60;4.50;;;;;;;32.16;31.67;99631.33;109481;1251;64450;-53
2023/09/21 10:28:28;;;;;;;5.10;4.00;;;;;;;31.80;32.06;99622.59;109103;1257;60150;-53
2023/09/21 10:31:11;;;;;;;7.50;4.60;;;;;;;31.80;32.51;99618.07;109117;1257;64190;-52
2023/09/21 10:33:51;;;;;;;5.70;4.10;;;;;;;31.62;32.29;99614.42;109002;1257;58996;-53
2023/09/21 10:36:26;;;;;;;4.30;3.80;;;;;;;32.14;31.88;99609.20;109091;1257;59537;-53
2023/09/21 10:39:05;;;;;;;5.50;4.30;;;;;;;32.41;31.21;99607.41;109102;1257;65835;-52
2023/09/21 10:41:32;;;;;;;13.30;7.00;;;;;;;32.78;31.09;99611.75;109129;1257;60204;-53
2023/09/21 10:44:02;;;;;;;14.50;4.90;;;;;;;32.96;31.12;99606.61;109061;1257;64909;-53
2023/09/21 10:46:37;;;;;;;5.60;3.70;;;;;;;32.92;31.33;99606.07;109088;1257;59497;-53
2023/09/21 10:49:04;;;;;;;7.30;4.20;;;;;;;33.23;31.07;99602.27;109102;1257;59011;-53
2023/09/21 10:51:35;;;;;;;8.10;4.10;;;;;;;33.72;30.21;99607.67;109088;1258;65826;-54
2023/09/21 10:54:04;;;;;;;7.00;3.90;;;;;;;33.68;29.63;99604.77;109095;1257;60226;-53
2023/09/21 10:56:36;;;;;;;6.80;3.70;;;;;;;33.24;30.38;99599.39;108975;1257;62898;-53
2023/09/21 10:59:03;;;;;;;11.90;4.30;;;;;;;32.99;30.81;99599.12;109070;1257;59526;-53
2023/09/21 11:01:30;;;;;;;4.90;3.80;;;;;;;33.14;31.08;99597.23;109114;1257;58906;-52
2023/09/21 11:03:58;;;;;;;6.40;3.60;;;;;;;33.21;31.15;99593.70;109362;1250;66102;-52
2023/09/21 11:06:28;;;;;;;5.40;3.80;;;;;;;32.78;31.93;99586.05;109458;1251;59184;-52
2023/09/21 11:08:55;;;;;;;4.80;3.40;;;;;;;32.83;31.36;99582.45;109725;1251;64093;-52
2023/09/21 11:11:22;;;;;;;4.40;3.90;;;;;;;33.19;31.57;99582.20;109712;1250;58970;-53
2023/09/21 11:13:52;;;;;;;10.00;4.20;;;;;;;33.31;31.31;99580.94;109575;1252;58976;-53
2023/09/21 11:16:18;;;;;;;8.10;3.80;;;;;;;33.80;30.54;99584.55;109638;1250;66004;-54
2023/09/21 11:18:46;;;;;;;5.90;4.00;;;;;;;34.08;29.96;99582.18;109629;1252;61092;-53
2023/09/21 11:21:16;;;;;;;5.90;4.20;;;;;;;34.10;29.83;99584.16;109581;1251;64142;-53
2023/09/21 11:23:43;;;;;;;6.70;3.60;;;;;;;34.29;29.84;99584.19;109664;1250;59016;-53
2023/09/21 11:26:14;;;;;;;5.40;3.90;;;;;;;34.31;29.50;99581.87;109344;1251;59031;-52
2023/09/21 11:28:42;;;;;;;7.00;3.80;;;;;;;34.09;29.74;99581.12;109712;1250;64601;-53